createdAt,value
2018-04-29T00:00:07.984Z,59.20
2018-04-29T00:02:34.948Z,59.30
2018-04-29T00:05:01.139Z,59.20
2018-04-29T00:07:27.378Z,59.30
2018-04-29T00:09:53.791Z,59.40
2018-04-29T00:12:20.311Z,59.30
2018-04-29T00:14:47.264Z,59.60
2018-04-29T00:17:13.460Z,59.60
2018-04-29T00:19:39.659Z,59.60
2018-04-29T00:22:05.837Z,59.50
2018-04-29T00:24:32.019Z,59.50
2018-04-29T00:26:58.182Z,59.70
2018-04-29T00:29:25.123Z,59.90
2018-04-29T00:31:51.319Z,59.90
2018-04-29T00:34:17.490Z,59.90
2018-04-29T00:36:43.656Z,60.00
2018-04-29T00:39:10.614Z,60.40
2018-04-29T00:41:37.523Z,60.20
2018-04-29T00:44:03.709Z,60.20
2018-04-29T00:46:30.639Z,60.30
2018-04-29T00:48:56.828Z,60.30
2018-04-29T00:51:23.035Z,60.30
2018-04-29T00:53:49.973Z,60.40
2018-04-29T00:56:16.137Z,60.30
2018-04-29T00:58:43.051Z,60.50
2018-04-29T01:01:09.245Z,60.50
2018-04-29T01:03:35.484Z,60.30
2018-04-29T01:06:01.776Z,60.30
2018-04-29T01:08:27.976Z,60.30
2018-04-29T01:10:54.195Z,60.40
2018-04-29T01:13:21.109Z,60.40
2018-04-29T01:15:47.299Z,60.40
2018-04-29T01:18:14.248Z,60.40
2018-04-29T01:20:41.161Z,60.50
2018-04-29T01:23:07.380Z,60.50
2018-04-29T01:25:33.543Z,60.40
2018-04-29T01:27:59.719Z,60.40
2018-04-29T01:30:26.646Z,60.50
2018-04-29T01:32:52.891Z,60.50
2018-04-29T01:35:20.560Z,60.50
2018-04-29T01:37:46.731Z,60.50
2018-04-29T01:40:13.665Z,60.40
2018-04-29T01:42:39.859Z,60.40
2018-04-29T01:45:06.048Z,60.20
2018-04-29T01:47:33.719Z,60.50
2018-04-29T01:49:59.880Z,60.60
2018-04-29T01:52:26.816Z,61.10
2018-04-29T01:54:53.025Z,60.60
2018-04-29T01:57:19.218Z,60.60
2018-04-29T01:59:46.131Z,60.80
2018-04-29T02:02:12.324Z,60.70
2018-04-29T02:04:39.231Z,61.00
2018-04-29T02:07:05.415Z,61.00
2018-04-29T02:09:32.347Z,61.50
2018-04-29T02:11:58.510Z,61.60
2018-04-29T02:14:25.478Z,61.70
2018-04-29T02:16:51.708Z,61.70
2018-04-29T02:19:18.616Z,61.60
2018-04-29T02:21:44.792Z,61.70
2018-04-29T02:24:11.728Z,61.30
2018-04-29T02:26:37.889Z,61.40
2018-04-29T02:29:04.044Z,61.40
2018-04-29T02:31:30.972Z,61.40
2018-04-29T02:33:57.148Z,61.40
2018-04-29T02:36:23.358Z,61.40
2018-04-29T02:38:50.299Z,61.40
2018-04-29T02:41:16.484Z,61.40
2018-04-29T02:43:42.652Z,61.30
2018-04-29T02:46:08.843Z,61.30
2018-04-29T02:48:35.032Z,61.40
2018-04-29T02:51:01.196Z,61.40
2018-04-29T02:53:27.401Z,61.30
2018-04-29T02:56:00.545Z,61.40
2018-04-29T02:58:26.753Z,61.50
2018-04-29T03:00:52.944Z,61.30
2018-04-29T03:03:19.871Z,61.50
2018-04-29T03:05:46.045Z,61.40
2018-04-29T03:08:12.960Z,61.60
2018-04-29T03:10:39.137Z,61.60
2018-04-29T03:13:06.147Z,61.60
2018-04-29T03:15:32.331Z,61.60
2018-04-29T03:17:59.270Z,61.70
2018-04-29T03:20:25.460Z,61.70
2018-04-29T03:22:51.648Z,61.60
2018-04-29T03:25:18.586Z,61.50
2018-04-29T03:27:44.774Z,61.40
2018-04-29T03:30:11.684Z,61.30
2018-04-29T03:32:37.869Z,61.30
2018-04-29T03:35:04.076Z,61.50
2018-04-29T03:37:31.009Z,62.10
2018-04-29T03:39:57.187Z,61.50
2018-04-29T03:42:23.371Z,61.50
2018-04-29T03:44:49.564Z,61.50
2018-04-29T03:47:15.732Z,61.50
2018-04-29T03:49:41.919Z,61.60
2018-04-29T03:52:08.094Z,61.60
2018-04-29T03:54:34.252Z,61.60
2018-04-29T03:57:12.771Z,62.70
2018-04-29T03:59:52.123Z,62.80
2018-04-29T04:02:30.741Z,62.80
2018-04-29T04:04:56.837Z,62.90
2018-04-29T04:07:23.052Z,63.00
2018-04-29T04:09:49.373Z,63.20
2018-04-29T04:12:15.494Z,63.50
2018-04-29T04:14:41.709Z,63.50
2018-04-29T04:17:09.405Z,63.90
2018-04-29T04:19:35.600Z,64.00
2018-04-29T04:22:01.828Z,64.00
2018-04-29T04:24:28.059Z,64.30
2018-04-29T04:26:55.009Z,65.30
2018-04-29T04:29:21.234Z,65.30
2018-04-29T04:31:47.457Z,65.60
2018-04-29T04:34:13.698Z,65.90
2018-04-29T04:36:39.868Z,65.00
2018-04-29T04:39:06.080Z,65.00
2018-04-29T04:41:32.299Z,65.10
2018-04-29T04:43:58.468Z,65.20
2018-04-29T04:46:24.714Z,65.50
2018-04-29T04:48:50.937Z,65.80
2018-04-29T04:51:17.184Z,66.10
2018-04-29T04:53:44.125Z,66.80
2018-04-29T04:56:10.326Z,66.80
2018-04-29T04:58:36.527Z,66.70
2018-04-29T05:01:03.492Z,66.90
2018-04-29T05:03:29.675Z,66.80
2018-04-29T05:05:55.846Z,66.90
2018-04-29T05:08:22.830Z,67.50
2018-04-29T05:10:49.115Z,66.90
2018-04-29T05:13:15.288Z,66.80
2018-04-29T05:15:41.492Z,67.10
2018-04-29T05:18:07.666Z,67.10
2018-04-29T05:20:34.580Z,67.40
2018-04-29T05:23:00.767Z,67.40
2018-04-29T05:25:27.731Z,67.50
2018-04-29T05:27:53.952Z,67.50
2018-04-29T05:30:20.903Z,67.40
2018-04-29T05:32:47.840Z,67.40
2018-04-29T05:35:14.027Z,67.30
2018-04-29T05:37:40.217Z,67.60
2018-04-29T05:40:06.403Z,67.70
2018-04-29T05:42:32.597Z,68.00
2018-04-29T05:44:58.783Z,68.50
2018-04-29T05:47:25.037Z,68.90
2018-04-29T05:49:51.250Z,69.10
2018-04-29T05:52:18.218Z,69.70
2018-04-29T05:54:44.404Z,69.70
2018-04-29T05:57:10.585Z,70.00
2018-04-29T05:59:37.503Z,70.70
2018-04-29T06:02:03.686Z,70.60
2018-04-29T06:04:30.591Z,70.30
2018-04-29T06:06:56.842Z,70.20
2018-04-29T06:09:23.037Z,69.90
2018-04-29T06:11:49.239Z,69.70
2018-04-29T06:14:16.932Z,69.60
2018-04-29T06:16:43.852Z,69.60
2018-04-29T06:19:10.027Z,69.60
2018-04-29T06:21:37.182Z,69.40
2018-04-29T06:24:04.160Z,69.00
2018-04-29T06:26:30.343Z,69.00
2018-04-29T06:28:56.544Z,68.80
2018-04-29T06:31:22.776Z,68.50
2018-04-29T06:33:49.006Z,68.50
2018-04-29T06:36:15.968Z,68.50
2018-04-29T06:38:42.953Z,69.30
2018-04-29T06:41:09.106Z,68.50
2018-04-29T06:43:35.293Z,68.40
2018-04-29T06:46:01.680Z,68.20
2018-04-29T06:48:27.909Z,68.20
2018-04-29T06:50:54.209Z,68.50
2018-04-29T06:53:21.156Z,68.80
2018-04-29T06:55:47.405Z,68.80
2018-04-29T06:58:14.367Z,69.20
2018-04-29T07:00:40.575Z,69.20
2018-04-29T07:03:06.752Z,69.10
2018-04-29T07:05:33.711Z,69.00
2018-04-29T07:08:00.713Z,69.00
2018-04-29T07:10:26.940Z,68.90
2018-04-29T07:12:53.265Z,68.70
2018-04-29T07:15:19.472Z,68.50
2018-04-29T07:17:45.672Z,68.50
2018-04-29T07:20:11.864Z,68.40
2018-04-29T07:22:38.076Z,68.30
2018-04-29T07:25:04.315Z,69.00
2018-04-29T07:27:31.330Z,68.80
2018-04-29T07:29:57.504Z,68.70
2018-04-29T07:32:23.765Z,68.60
2018-04-29T07:34:49.968Z,68.70
2018-04-29T07:37:23.070Z,68.70
2018-04-29T07:39:49.285Z,68.80
2018-04-29T07:42:16.217Z,68.80
2018-04-29T07:44:43.124Z,69.60
2018-04-29T07:47:09.280Z,68.70
2018-04-29T07:49:35.471Z,68.80
2018-04-29T07:52:01.705Z,69.20
2018-04-29T07:54:27.883Z,69.40
2018-04-29T07:56:54.144Z,69.70
2018-04-29T07:59:27.409Z,70.00
2018-04-29T08:01:53.618Z,69.90
2018-04-29T08:04:19.791Z,70.00
2018-04-29T08:06:45.961Z,70.10
2018-04-29T08:09:12.177Z,70.20
2018-04-29T08:11:38.355Z,70.10
2018-04-29T08:14:04.527Z,70.20
2018-04-29T08:16:31.481Z,71.10
2018-04-29T08:18:58.401Z,71.40
2018-04-29T08:21:24.608Z,71.20
2018-04-29T08:23:50.847Z,72.00
2018-04-29T08:26:17.024Z,73.00
2018-04-29T08:28:43.182Z,73.60
2018-04-29T08:31:09.369Z,74.60
2018-04-29T08:33:35.537Z,75.00
2018-04-29T08:36:01.715Z,75.50
2018-04-29T08:38:28.715Z,76.20
2018-04-29T08:40:54.951Z,76.20
2018-04-29T08:43:21.176Z,77.00
2018-04-29T08:45:47.338Z,75.90
2018-04-29T08:48:13.505Z,76.00
2018-04-29T08:50:39.677Z,76.00
2018-04-29T08:53:06.682Z,77.40
2018-04-29T08:55:32.855Z,77.30
2018-04-29T08:57:59.039Z,77.90
2018-04-29T09:00:26.114Z,78.20
2018-04-29T09:02:52.376Z,78.30
2018-04-29T09:05:20.032Z,77.90
2018-04-29T09:07:46.223Z,77.70
2018-04-29T09:10:13.177Z,76.90
2018-04-29T09:12:39.339Z,76.80
2018-04-29T09:15:05.539Z,76.50
2018-04-29T09:17:31.809Z,76.10
2018-04-29T09:19:57.937Z,75.50
2018-04-29T09:22:24.971Z,74.10
2018-04-29T09:24:51.268Z,73.90
2018-04-29T09:27:17.448Z,73.80
2018-04-29T09:29:43.627Z,73.50
2018-04-29T09:32:09.862Z,73.50
2018-04-29T09:34:36.787Z,74.30
2018-04-29T09:37:03.067Z,74.20
2018-04-29T09:39:30.008Z,74.30
2018-04-29T09:41:56.961Z,74.50
2018-04-29T09:44:23.176Z,74.40
2018-04-29T09:46:50.175Z,74.60
2018-04-29T09:49:16.373Z,74.50
2018-04-29T09:51:42.579Z,74.70
2018-04-29T09:54:08.760Z,74.70
2018-04-29T09:56:34.933Z,74.70
2018-04-29T09:59:01.887Z,74.70
2018-04-29T10:01:28.139Z,74.70
2018-04-29T10:03:54.324Z,75.10
2018-04-29T10:06:22.017Z,75.90
2018-04-29T10:08:48.936Z,76.30
2018-04-29T10:11:15.134Z,76.10
2018-04-29T10:13:41.331Z,76.30
2018-04-29T10:16:14.496Z,76.50
2018-04-29T10:18:40.707Z,77.00
2018-04-29T10:21:07.652Z,77.50
2018-04-29T10:23:34.580Z,77.80
2018-04-29T10:26:00.760Z,77.70
2018-04-29T10:28:27.671Z,78.30
2018-04-29T10:30:53.878Z,78.20
2018-04-29T10:33:20.065Z,78.30
2018-04-29T10:35:46.261Z,78.60
2018-04-29T10:38:12.435Z,79.10
2018-04-29T10:40:38.613Z,79.40
2018-04-29T10:43:05.587Z,79.30
2018-04-29T10:45:31.803Z,79.20
2018-04-29T10:47:58.768Z,79.30
2018-04-29T10:50:24.968Z,79.10
2018-04-29T10:52:51.944Z,79.40
2018-04-29T10:55:18.167Z,79.20
2018-04-29T10:57:44.352Z,79.60
2018-04-29T11:00:11.303Z,80.40
2018-04-29T11:02:38.239Z,81.00
2018-04-29T11:05:04.443Z,81.00
2018-04-29T11:07:30.856Z,81.00
2018-04-29T11:09:57.093Z,81.40
2018-04-29T11:12:24.017Z,82.60
2018-04-29T11:14:51.760Z,82.30
2018-04-29T11:17:17.942Z,82.20
2018-04-29T11:19:44.119Z,81.90
2018-04-29T11:22:10.338Z,82.00
2018-04-29T11:24:36.497Z,82.30
2018-04-29T11:27:02.712Z,82.60
2018-04-29T11:29:29.660Z,82.00
2018-04-29T11:31:56.587Z,81.60
2018-04-29T11:34:22.772Z,82.10
2018-04-29T11:36:49.701Z,81.40
2018-04-29T11:39:15.895Z,81.30
2018-04-29T11:41:42.076Z,81.10
2018-04-29T11:44:09.757Z,81.20
2018-04-29T11:46:35.943Z,81.20
2018-04-29T11:49:02.126Z,81.30
2018-04-29T11:51:29.076Z,81.10
2018-04-29T11:53:55.256Z,80.90
2018-04-29T11:56:22.173Z,81.20
2018-04-29T11:58:48.393Z,81.00
2018-04-29T12:01:14.575Z,80.50
2018-04-29T12:03:40.765Z,79.90
2018-04-29T12:06:06.955Z,79.50
2018-04-29T12:08:33.874Z,80.20
2018-04-29T12:11:00.040Z,80.10
2018-04-29T12:13:26.994Z,80.80
2018-04-29T12:15:53.205Z,80.70
2018-04-29T12:18:19.391Z,81.00
2018-04-29T12:20:46.307Z,80.50
2018-04-29T12:23:12.487Z,80.40
2018-04-29T12:25:38.686Z,80.30
2018-04-29T12:28:04.892Z,81.10
2018-04-29T12:30:31.052Z,80.50
2018-04-29T12:32:57.256Z,80.70
2018-04-29T12:35:24.185Z,79.10
2018-04-29T12:37:51.128Z,80.10
2018-04-29T12:40:17.305Z,79.40
2018-04-29T12:42:43.533Z,79.20
2018-04-29T12:45:11.017Z,78.30
2018-04-29T12:47:37.213Z,78.20
2018-04-29T12:50:03.454Z,79.10
2018-04-29T12:52:29.619Z,78.80
2018-04-29T12:54:56.696Z,77.30
2018-04-29T12:57:22.923Z,77.00
2018-04-29T12:59:49.859Z,75.60
2018-04-29T13:02:16.803Z,76.00
2018-04-29T13:04:43.008Z,76.50
2018-04-29T13:07:09.176Z,74.60
2018-04-29T13:09:35.372Z,74.60
2018-04-29T13:12:01.597Z,70.50
2018-04-29T13:14:28.514Z,70.30
2018-04-29T13:16:54.723Z,70.20
2018-04-29T13:19:20.929Z,71.00
2018-04-29T13:21:47.222Z,71.10
2018-04-29T13:24:13.341Z,71.70
2018-04-29T13:26:39.528Z,72.60
2018-04-29T13:29:06.463Z,72.40
2018-04-29T13:31:32.639Z,72.20
2018-04-29T13:33:59.597Z,72.40
2018-04-29T13:36:25.801Z,72.20
2018-04-29T13:38:51.992Z,72.20
2018-04-29T13:41:18.998Z,72.80
2018-04-29T13:43:45.175Z,72.70
2018-04-29T13:46:11.373Z,74.00
2018-04-29T13:48:37.597Z,73.00
2018-04-29T13:51:03.788Z,73.00
2018-04-29T13:53:29.977Z,71.30
2018-04-29T13:55:56.189Z,71.00
2018-04-29T13:58:23.131Z,70.50
2018-04-29T14:00:50.064Z,68.30
2018-04-29T14:03:16.329Z,68.20
2018-04-29T14:05:42.448Z,67.30
2018-04-29T14:08:10.185Z,67.70
2018-04-29T14:10:36.433Z,66.90
2018-04-29T14:13:03.414Z,69.20
2018-04-29T14:15:29.635Z,69.00
2018-04-29T14:17:55.847Z,68.40
2018-04-29T14:20:22.045Z,67.60
2018-04-29T14:22:48.228Z,67.10
2018-04-29T14:25:14.419Z,68.20
2018-04-29T14:27:40.605Z,67.30
2018-04-29T14:30:06.801Z,67.80
2018-04-29T14:32:32.999Z,67.90
2018-04-29T14:34:59.187Z,68.40
2018-04-29T14:37:26.123Z,68.20
2018-04-29T14:39:52.387Z,68.00
2018-04-29T14:42:18.563Z,68.90
2018-04-29T14:44:44.743Z,69.90
2018-04-29T14:47:10.940Z,68.90
2018-04-29T14:49:37.253Z,69.00
2018-04-29T14:52:03.353Z,68.30
2018-04-29T14:54:29.548Z,68.80
2018-04-29T14:56:56.459Z,69.50
2018-04-29T14:59:22.665Z,69.30
2018-04-29T15:01:48.883Z,69.00
2018-04-29T15:04:15.811Z,65.50
2018-04-29T15:06:42.003Z,65.40
2018-04-29T15:09:08.193Z,63.80
2018-04-29T15:11:34.371Z,62.40
2018-04-29T15:14:01.385Z,65.20
2018-04-29T15:16:27.656Z,65.00
2018-04-29T15:18:58.987Z,64.20
2018-04-29T15:21:25.177Z,64.60
2018-04-29T15:23:51.455Z,64.80
2018-04-29T15:26:17.640Z,63.40
2018-04-29T15:28:43.825Z,62.90
2018-04-29T15:31:10.020Z,62.80
2018-04-29T15:33:36.956Z,63.90
2018-04-29T15:36:03.880Z,63.50
2018-04-29T15:38:30.091Z,63.30
2018-04-29T15:40:56.308Z,64.20
2018-04-29T15:43:23.288Z,63.70
2018-04-29T15:45:49.587Z,63.50
2018-04-29T15:48:16.539Z,63.80
2018-04-29T15:50:42.742Z,63.70
2018-04-29T15:53:08.965Z,63.20
2018-04-29T15:55:35.158Z,64.30
2018-04-29T15:58:01.432Z,62.80
2018-04-29T16:00:27.620Z,63.20
2018-04-29T16:02:53.840Z,63.70
2018-04-29T16:05:20.045Z,63.60
2018-04-29T16:07:46.274Z,63.60
2018-04-29T16:10:13.208Z,65.20
2018-04-29T16:12:39.395Z,65.00
2018-04-29T16:15:05.620Z,65.20
2018-04-29T16:17:32.549Z,64.50
2018-04-29T16:19:58.786Z,64.40
2018-04-29T16:22:25.086Z,65.30
2018-04-29T16:24:51.310Z,65.50
2018-04-29T16:27:17.509Z,64.90
2018-04-29T16:29:43.739Z,65.90
2018-04-29T16:32:10.085Z,65.70
2018-04-29T16:34:37.031Z,66.60
2018-04-29T16:37:03.254Z,66.40
2018-04-29T16:39:29.593Z,66.80
2018-04-29T16:41:56.661Z,66.70
2018-04-29T16:44:22.868Z,66.60
2018-04-29T16:46:49.112Z,66.50
2018-04-29T16:49:15.325Z,66.90
2018-04-29T16:51:41.637Z,65.50
2018-04-29T16:54:07.815Z,65.50
2018-04-29T16:56:34.735Z,65.90
2018-04-29T16:59:00.947Z,65.80
2018-04-29T17:01:27.456Z,65.40
2018-04-29T17:03:54.383Z,63.20
2018-04-29T17:06:20.583Z,63.20
2018-04-29T17:08:46.792Z,64.10
2018-04-29T17:11:12.999Z,64.00
2018-04-29T17:13:39.209Z,64.00
2018-04-29T17:16:05.419Z,64.60
2018-04-29T17:18:31.639Z,64.40
2018-04-29T17:20:57.839Z,63.40
2018-04-29T17:23:24.057Z,63.90
2018-04-29T17:25:50.254Z,64.30
2018-04-29T17:28:16.469Z,64.60
2018-04-29T17:30:42.682Z,64.00
2018-04-29T17:33:08.883Z,64.90
2018-04-29T17:35:35.854Z,65.90
2018-04-29T17:38:02.148Z,65.80
2018-04-29T17:40:29.015Z,66.20
2018-04-29T17:42:55.269Z,66.10
2018-04-29T17:45:22.283Z,65.70
2018-04-29T17:47:48.505Z,65.50
2018-04-29T17:50:14.792Z,65.80
2018-04-29T17:52:40.971Z,65.90
2018-04-29T17:55:07.165Z,65.90
2018-04-29T17:57:33.362Z,66.30
2018-04-29T17:59:59.583Z,66.70
2018-04-29T18:02:25.808Z,66.50
2018-04-29T18:04:52.038Z,66.50
2018-04-29T18:07:18.212Z,66.20
2018-04-29T18:09:44.364Z,66.90
2018-04-29T18:12:11.311Z,68.00
2018-04-29T18:14:38.230Z,68.20
2018-04-29T18:17:05.699Z,68.00
2018-04-29T18:19:32.145Z,68.10
2018-04-29T18:21:58.353Z,67.90
2018-04-29T18:24:24.516Z,68.90
2018-04-29T18:26:51.470Z,69.40
2018-04-29T18:29:17.632Z,69.20
2018-04-29T18:31:43.785Z,69.40
2018-04-29T18:34:09.945Z,69.40
2018-04-29T18:36:36.115Z,69.70
2018-04-29T18:39:02.281Z,69.20
2018-04-29T18:41:29.218Z,69.80
2018-04-29T18:43:55.365Z,69.60
2018-04-29T18:46:22.264Z,70.40
2018-04-29T18:48:48.481Z,71.00
2018-04-29T18:51:14.773Z,70.30
2018-04-29T18:53:41.618Z,70.70
2018-04-29T18:56:07.830Z,70.40
2018-04-29T18:58:34.744Z,70.80
2018-04-29T19:01:00.901Z,70.70
2018-04-29T19:03:27.832Z,71.20
2018-04-29T19:05:57.967Z,71.00
2018-04-29T19:08:24.948Z,71.40
2018-04-29T19:10:51.097Z,71.30
2018-04-29T19:13:17.256Z,71.60
2018-04-29T19:15:43.455Z,71.50
2018-04-29T19:18:09.636Z,71.40
2018-04-29T19:20:36.539Z,71.80
2018-04-29T19:23:02.697Z,71.70
2018-04-29T19:25:29.620Z,71.90
2018-04-29T19:27:55.818Z,71.80
2018-04-29T19:30:21.973Z,71.80
2018-04-29T19:32:48.136Z,71.80
2018-04-29T19:35:15.020Z,72.10
2018-04-29T19:37:41.165Z,72.00
2018-04-29T19:40:07.375Z,72.20
2018-04-29T19:42:33.525Z,72.00
2018-04-29T19:44:59.669Z,72.30
2018-04-29T19:47:25.965Z,72.50
2018-04-29T19:49:52.112Z,72.70
2018-04-29T19:52:18.265Z,73.00
2018-04-29T19:54:45.169Z,73.40
2018-04-29T19:57:11.322Z,73.20
2018-04-29T19:59:37.480Z,73.30
2018-04-29T20:02:03.678Z,73.60
2018-04-29T20:04:30.691Z,74.20
2018-04-29T20:06:56.861Z,74.00
2018-04-29T20:09:23.798Z,74.60
2018-04-29T20:11:50.745Z,75.50
2018-04-29T20:14:16.889Z,74.50
2018-04-29T20:16:43.005Z,74.80
2018-04-29T20:19:09.123Z,74.80
2018-04-29T20:21:35.214Z,75.00
2018-04-29T20:24:01.361Z,75.10
2018-04-29T20:26:27.475Z,75.20
2018-04-29T20:28:53.622Z,75.50
2018-04-29T20:31:20.522Z,75.90
2018-04-29T20:33:46.650Z,75.70
2018-04-29T20:36:12.780Z,75.90
2018-04-29T20:38:38.913Z,75.90
2018-04-29T20:41:05.047Z,76.20
2018-04-29T20:43:31.164Z,76.40
2018-04-29T20:45:57.412Z,76.50
2018-04-29T20:48:23.602Z,76.50
2018-04-29T20:50:50.456Z,77.30
2018-04-29T20:53:16.665Z,77.10
2018-04-29T20:55:43.525Z,77.70
2018-04-29T20:58:09.686Z,77.40
2018-04-29T21:00:35.885Z,77.70
2018-04-29T21:03:01.965Z,77.70
2018-04-29T21:05:28.849Z,78.50
2018-04-29T21:07:55.814Z,78.50
2018-04-29T21:10:21.965Z,78.40
2018-04-29T21:12:48.090Z,78.30
2018-04-29T21:15:14.241Z,78.40
2018-04-29T21:17:41.101Z,78.30
2018-04-29T21:20:07.225Z,78.00
2018-04-29T21:22:33.449Z,78.40
2018-04-29T21:24:59.629Z,78.70
2018-04-29T21:27:25.840Z,78.80
2018-04-29T21:29:51.996Z,79.00
2018-04-29T21:32:18.138Z,79.20
2018-04-29T21:34:44.321Z,78.60
2018-04-29T21:37:10.494Z,78.70
2018-04-29T21:39:37.416Z,79.60
2018-04-29T21:42:03.505Z,79.40
2018-04-29T21:44:29.635Z,79.50
2018-04-29T21:46:55.834Z,79.90
2018-04-29T21:49:22.009Z,80.30
2018-04-29T21:51:48.983Z,81.80
2018-04-29T21:54:15.100Z,80.70
2018-04-29T21:56:41.289Z,80.80
2018-04-29T21:59:07.457Z,80.80
2018-04-29T22:01:33.569Z,81.20
2018-04-29T22:03:59.704Z,81.40
2018-04-29T22:06:25.834Z,81.80
2018-04-29T22:08:51.939Z,81.90
2018-04-29T22:11:18.066Z,82.40
2018-04-29T22:13:44.219Z,82.30
2018-04-29T22:16:10.349Z,82.30
2018-04-29T22:18:36.501Z,82.20
2018-04-29T22:21:02.706Z,82.30
2018-04-29T22:23:28.845Z,81.90
2018-04-29T22:25:54.948Z,82.10
2018-04-29T22:28:21.809Z,81.90
2018-04-29T22:30:47.994Z,81.80
2018-04-29T22:33:14.102Z,81.80
2018-04-29T22:35:41.055Z,81.80
2018-04-29T22:38:07.973Z,81.80
2018-04-29T22:40:34.943Z,81.70
2018-04-29T22:43:01.081Z,81.50
2018-04-29T22:45:27.213Z,81.60
2018-04-29T22:47:53.322Z,81.80
2018-04-29T22:50:20.289Z,82.00
2018-04-29T22:52:46.410Z,81.70
2018-04-29T22:55:12.562Z,81.80
2018-04-29T22:57:39.531Z,82.10
2018-04-29T23:00:05.657Z,81.90
2018-04-29T23:02:32.506Z,82.40
2018-04-29T23:07:55.434Z,82.70
2018-04-29T23:10:21.653Z,82.60
2018-04-29T23:12:47.855Z,83.20
2018-04-29T23:15:14.029Z,83.10
2018-04-29T23:17:40.214Z,82.50
2018-04-29T23:20:06.365Z,82.60
2018-04-29T23:22:32.568Z,83.20
2018-04-29T23:24:58.798Z,83.70
2018-04-29T23:27:25.678Z,84.70
2018-04-29T23:29:51.841Z,84.60
2018-04-29T23:32:18.025Z,84.70
2018-04-29T23:34:44.198Z,85.20
2018-04-29T23:37:10.354Z,85.10
2018-04-29T23:39:37.250Z,85.10
2018-04-29T23:42:03.471Z,85.00
2018-04-29T23:44:29.625Z,84.90
2018-04-29T23:46:55.800Z,85.10
2018-04-29T23:49:21.977Z,85.00
2018-04-29T23:51:48.211Z,85.30
2018-04-29T23:54:14.432Z,84.90
2018-04-29T23:56:40.617Z,84.70
2018-04-29T23:59:06.800Z,84.40
